createdAt,value
2022-08-26T00:00:47.833Z,100541.22
2022-08-26T00:03:16.749Z,100535.50
2022-08-26T00:05:45.267Z,100535.75
2022-08-26T00:08:15.075Z,100548.78
2022-08-26T00:10:44.409Z,100541.41
2022-08-26T00:13:15.615Z,100548.41
2022-08-26T00:15:47.259Z,100515.00
2022-08-26T00:18:22.351Z,100529.59
2022-08-26T00:20:50.550Z,100540.28
2022-08-26T00:23:18.542Z,100539.00
2022-08-26T00:25:47.643Z,100523.16
2022-08-26T00:28:15.915Z,100544.97
2022-08-26T00:30:51.607Z,100552.69
2022-08-26T00:33:20.547Z,100539.22
2022-08-26T00:35:48.444Z,100563.41
2022-08-26T00:38:16.770Z,100548.47
2022-08-26T00:40:47.546Z,100552.31
2022-08-26T00:43:16.132Z,100546.34
2022-08-26T00:46:02.351Z,100554.19
2022-08-26T00:48:32.550Z,100541.28
2022-08-26T00:51:12.047Z,100551.63
2022-08-26T00:53:46.313Z,100562.38
2022-08-26T00:56:36.632Z,100547.91
2022-08-26T00:59:08.311Z,100536.28
2022-08-26T01:01:38.280Z,100559.44
2022-08-26T01:04:06.142Z,100554.53
2022-08-26T01:06:33.325Z,100538.25
2022-08-26T01:09:00.632Z,100540.63
2022-08-26T01:11:28.625Z,100544.59
2022-08-26T01:14:00.133Z,100541.06
2022-08-26T01:16:27.378Z,100548.41
2022-08-26T01:19:02.409Z,100547.66
2022-08-26T01:21:47.060Z,100534.47
2022-08-26T01:24:15.728Z,100536.91
2022-08-26T01:26:44.901Z,100543.63
2022-08-26T01:29:18.088Z,100534.25
2022-08-26T01:31:50.637Z,100535.50
2022-08-26T01:34:28.041Z,100548.69
2022-08-26T01:37:03.667Z,100532.88
2022-08-26T01:39:34.909Z,100545.00
2022-08-26T01:42:03.917Z,100524.59
2022-08-26T01:44:39.363Z,100522.94
2022-08-26T01:47:09.766Z,100548.78
2022-08-26T01:49:37.886Z,100543.44
2022-08-26T01:52:07.857Z,100540.34
2022-08-26T01:54:38.060Z,100550.72
2022-08-26T01:57:05.719Z,100556.22
2022-08-26T01:59:33.354Z,100553.28
2022-08-26T02:02:08.139Z,100538.13
2022-08-26T02:05:32.355Z,100573.25
2022-08-26T02:08:50.547Z,100554.84
2022-08-26T02:11:18.763Z,100537.31
2022-08-26T02:13:54.726Z,100536.63
2022-08-26T02:16:27.373Z,100554.44
2022-08-26T02:19:16.855Z,100550.25
2022-08-26T02:22:19.166Z,100567.66
2022-08-26T02:25:37.526Z,100534.66
2022-08-26T02:31:16.880Z,100553.38
2022-08-26T02:38:03.199Z,100533.44
2022-08-26T03:01:38.206Z,100540.97
2022-08-26T03:48:31.520Z,100589.75
2022-08-26T03:50:59.109Z,100586.78
2022-08-26T03:53:27.049Z,100549.63
2022-08-26T03:55:55.418Z,100557.75
2022-08-26T03:58:24.719Z,100566.28
2022-08-26T04:00:55.923Z,100557.13
2022-08-26T04:03:43.336Z,100594.69
2022-08-26T04:06:11.035Z,100555.44
2022-08-26T04:08:38.819Z,100570.88
2022-08-26T04:11:09.224Z,100567.38
2022-08-26T04:13:37.872Z,100594.00
2022-08-26T04:16:05.954Z,100578.31
2022-08-26T04:18:37.241Z,100560.00
2022-08-26T04:21:08.556Z,100575.25
2022-08-26T04:23:47.249Z,100563.78
2022-08-26T04:26:18.593Z,100577.66
2022-08-26T04:28:48.478Z,100582.72
2022-08-26T04:31:17.757Z,100589.88
2022-08-26T04:33:53.657Z,100567.94
2022-08-26T04:36:21.737Z,100594.75
2022-08-26T04:38:52.209Z,100590.38
2022-08-26T04:41:21.467Z,100602.41
2022-08-26T04:43:49.134Z,100587.47
2022-08-26T04:46:20.059Z,100584.44
2022-08-26T04:48:52.112Z,100572.44
2022-08-26T04:51:30.356Z,100575.22
2022-08-26T04:53:59.366Z,100571.56
2022-08-26T04:56:33.238Z,100586.88
2022-08-26T04:59:03.168Z,100586.25
2022-08-26T05:01:34.309Z,100586.66
2022-08-26T05:04:08.134Z,100596.59
2022-08-26T05:06:37.212Z,100584.19
2022-08-26T05:09:05.162Z,100590.75
2022-08-26T05:11:37.626Z,100591.56
2022-08-26T05:14:06.257Z,100596.31
2022-08-26T05:16:34.079Z,100589.34
2022-08-26T05:19:01.740Z,100587.22
2022-08-26T05:21:29.887Z,100576.56
2022-08-26T05:24:00.658Z,100605.44
2022-08-26T05:26:30.290Z,100585.69
2022-08-26T05:29:04.669Z,100587.84
2022-08-26T05:31:34.801Z,100593.69
2022-08-26T05:34:05.033Z,100581.81
2022-08-26T05:36:34.975Z,100601.53
2022-08-26T05:39:05.635Z,100598.50
2022-08-26T05:41:38.300Z,100601.09
2022-08-26T05:44:19.148Z,100592.63
2022-08-26T05:46:47.388Z,100596.53
2022-08-26T05:49:16.547Z,100601.59
2022-08-26T05:51:47.672Z,100579.66
2022-08-26T05:54:21.367Z,100589.41
2022-08-26T05:56:53.953Z,100593.38
2022-08-26T05:59:28.211Z,100582.72
2022-08-26T06:01:57.646Z,100594.53
2022-08-26T06:04:28.405Z,100577.94
2022-08-26T06:07:06.481Z,100580.69
2022-08-26T06:09:38.603Z,100587.69
2022-08-26T06:12:08.233Z,100572.41
2022-08-26T06:14:36.257Z,100597.38
2022-08-26T06:17:04.528Z,100606.78
2022-08-26T06:19:34.595Z,100578.53
2022-08-26T06:22:23.287Z,100591.00
2022-08-26T06:25:13.473Z,100591.75
2022-08-26T06:27:43.777Z,100598.63
2022-08-26T06:30:14.790Z,100599.78
2022-08-26T06:32:48.477Z,100583.66
2022-08-26T06:35:28.528Z,100584.84
2022-08-26T06:38:06.754Z,100596.03
2022-08-26T06:40:48.799Z,100595.25
2022-08-26T06:43:20.482Z,100581.84
2022-08-26T06:46:00.708Z,100581.34
2022-08-26T06:48:28.403Z,100593.41
2022-08-26T06:51:25.691Z,100596.84
2022-08-26T06:53:55.519Z,100588.16
2022-08-26T06:56:25.866Z,100602.66
2022-08-26T06:58:53.595Z,100586.69
2022-08-26T07:01:27.213Z,100601.75
2022-08-26T07:03:59.531Z,100582.31
2022-08-26T07:06:40.761Z,100600.59
2022-08-26T07:09:10.135Z,100582.25
2022-08-26T07:11:39.344Z,100590.03
2022-08-26T07:14:09.456Z,100592.84
2022-08-26T07:16:39.041Z,100595.97
2022-08-26T07:19:11.214Z,100612.94
2022-08-26T07:22:09.079Z,100605.84
2022-08-26T07:24:45.342Z,100588.72
2022-08-26T07:27:15.601Z,100592.38
2022-08-26T07:29:43.861Z,100598.38
2022-08-26T07:32:13.523Z,100618.75
2022-08-26T07:34:41.922Z,100593.69
2022-08-26T07:37:14.049Z,100608.22
2022-08-26T07:39:50.349Z,100596.38
2022-08-26T07:42:20.083Z,100595.53
2022-08-26T07:44:56.860Z,100595.78
2022-08-26T07:47:26.213Z,100616.03
2022-08-26T07:49:56.219Z,100566.09
2022-08-26T07:52:31.466Z,100571.38
2022-08-26T07:55:04.991Z,100584.72
2022-08-26T07:57:37.199Z,100583.63
2022-08-26T08:00:10.869Z,100589.72
2022-08-26T08:02:45.451Z,100575.31
2022-08-26T08:05:17.063Z,100576.97
2022-08-26T08:07:47.366Z,100583.56
2022-08-26T08:10:25.173Z,100576.84
2022-08-26T08:12:56.743Z,100569.09
2022-08-26T08:15:35.154Z,100581.72
2022-08-26T08:18:15.856Z,100578.56
2022-08-26T08:20:54.679Z,100573.09
2022-08-26T08:23:32.989Z,100557.78
2022-08-26T08:26:13.673Z,100572.03
2022-08-26T08:29:00.058Z,100575.50
2022-08-26T08:34:21.461Z,100568.72
2022-08-26T08:36:53.340Z,100570.50
2022-08-26T08:39:21.956Z,100563.38
2022-08-26T08:42:16.355Z,100571.66
2022-08-26T08:44:52.024Z,100564.47
2022-08-26T08:47:45.218Z,100564.56
2022-08-26T08:50:38.876Z,100556.22
2022-08-26T08:53:17.824Z,100551.09
2022-08-26T08:56:31.169Z,100569.84
2022-08-26T08:59:55.326Z,100571.19
2022-08-26T09:02:41.164Z,100560.69
2022-08-26T09:05:21.494Z,100562.16
2022-08-26T09:08:20.094Z,100564.25
2022-08-26T09:11:27.657Z,100560.22
2022-08-26T09:14:37.334Z,100549.91
2022-08-26T09:18:02.140Z,100558.44
2022-08-26T09:20:58.992Z,100537.16
2022-08-26T09:23:57.924Z,100566.16
2022-08-26T09:26:50.508Z,100558.03
2022-08-26T09:29:41.923Z,100559.63
2022-08-26T09:32:28.233Z,100556.22
2022-08-26T09:35:03.669Z,100544.38
2022-08-26T09:37:55.431Z,100559.50
2022-08-26T09:40:36.781Z,100551.22
2022-08-26T09:43:23.198Z,100548.47
2022-08-26T09:45:59.416Z,100524.47
2022-08-26T09:48:37.554Z,100543.78
2022-08-26T09:51:35.737Z,100540.81
2022-08-26T09:54:09.431Z,100545.56
2022-08-26T09:56:40.337Z,100532.06
2022-08-26T09:59:15.117Z,100530.53
2022-08-26T10:01:54.860Z,100527.63
2022-08-26T10:04:34.291Z,100537.69
2022-08-26T10:07:11.293Z,100518.84
2022-08-26T10:09:54.104Z,100520.69
2022-08-26T10:12:25.743Z,100527.38
2022-08-26T10:15:04.113Z,100529.97
2022-08-26T10:17:38.294Z,100519.34
2022-08-26T10:20:26.294Z,100520.28
2022-08-26T10:23:03.117Z,100531.19
2022-08-26T10:25:59.363Z,100502.59
2022-08-26T10:28:44.389Z,100529.72
2022-08-26T10:31:40.345Z,100514.88
2022-08-26T10:34:12.311Z,100495.81
2022-08-26T10:37:13.773Z,100510.81
2022-08-26T10:40:07.568Z,100516.19
2022-08-26T10:42:53.687Z,100520.34
2022-08-26T10:45:30.484Z,100499.09
2022-08-26T10:48:08.757Z,100492.09
2022-08-26T10:50:47.441Z,100502.34
2022-08-26T10:53:32.737Z,100489.75
2022-08-26T10:56:42.219Z,100498.84
2022-08-26T10:59:34.174Z,100501.16
2022-08-26T11:02:15.173Z,100486.00
2022-08-26T11:04:49.132Z,100504.72
2022-08-26T11:07:33.579Z,100494.84
2022-08-26T11:10:08.719Z,100479.06
2022-08-26T11:12:39.010Z,100498.53
2022-08-26T11:15:14.505Z,100494.25
2022-08-26T11:17:46.124Z,100497.16
2022-08-26T11:20:35.188Z,100492.44
2022-08-26T11:23:26.522Z,100491.34
2022-08-26T11:25:57.514Z,100492.72
2022-08-26T11:28:48.974Z,100462.09
2022-08-26T11:31:20.992Z,100479.88
2022-08-26T11:33:57.305Z,100473.13
2022-08-26T11:36:46.326Z,100471.97
2022-08-26T11:39:24.414Z,100460.28
2022-08-26T11:41:55.811Z,100459.03
2022-08-26T11:44:41.481Z,100457.00
2022-08-26T11:47:27.041Z,100445.59
2022-08-26T11:50:19.939Z,100460.97
2022-08-26T11:52:57.342Z,100441.56
2022-08-26T11:55:26.789Z,100431.97
2022-08-26T11:58:01.131Z,100449.13
2022-08-26T12:00:36.291Z,100442.06
2022-08-26T12:03:17.420Z,100460.66
2022-08-26T12:05:49.606Z,100456.97
2022-08-26T12:08:24.652Z,100448.34
2022-08-26T12:11:25.701Z,100450.47
2022-08-26T12:14:05.850Z,100450.88
2022-08-26T12:16:40.161Z,100436.88
2022-08-26T12:19:27.482Z,100445.03
2022-08-26T12:22:17.451Z,100432.81
2022-08-26T12:24:52.788Z,100433.31
2022-08-26T12:27:32.022Z,100429.63
2022-08-26T12:30:20.439Z,100453.63
2022-08-26T12:32:57.539Z,100445.44
2022-08-26T12:35:30.848Z,100426.03
2022-08-26T12:37:59.972Z,100430.03
2022-08-26T12:40:50.404Z,100432.41
2022-08-26T12:43:42.642Z,100428.66
2022-08-26T12:46:29.870Z,100436.53
2022-08-26T12:49:01.489Z,100413.28
2022-08-26T12:51:33.625Z,100415.72
2022-08-26T12:54:08.265Z,100401.97
2022-08-26T12:56:41.840Z,100413.03
2022-08-26T12:59:26.720Z,100402.84
2022-08-26T13:01:56.878Z,100401.97
2022-08-26T13:04:41.736Z,100422.59
2022-08-26T13:07:25.227Z,100414.81
2022-08-26T13:09:59.910Z,100415.75
2022-08-26T13:12:43.812Z,100387.09
2022-08-26T13:15:11.276Z,100405.81
2022-08-26T13:17:39.518Z,100412.56
2022-08-26T13:20:38.349Z,100390.41
2022-08-26T13:22:59.932Z,100395.03
2022-08-26T13:25:27.650Z,100403.31
2022-08-26T13:27:57.304Z,100379.50
2022-08-26T13:30:28.093Z,100385.38
2022-08-26T13:33:02.303Z,100388.03
2022-08-26T13:35:34.122Z,100392.84
2022-08-26T13:38:02.206Z,100384.16
2022-08-26T13:40:34.297Z,100368.22
2022-08-26T13:43:04.160Z,100373.94
2022-08-26T13:45:33.040Z,100367.88
2022-08-26T13:48:06.349Z,100375.44
2022-08-26T13:50:35.707Z,100366.81
2022-08-26T13:53:03.118Z,100400.69
2022-08-26T13:55:30.657Z,100387.22
2022-08-26T13:57:58.674Z,100382.44
2022-08-26T14:00:28.993Z,100376.28
2022-08-26T14:02:56.858Z,100360.63
2022-08-26T14:05:24.251Z,100399.44
2022-08-26T14:07:52.582Z,100379.34
2022-08-26T14:10:20.265Z,100374.84
2022-08-26T14:12:49.615Z,100396.34
2022-08-26T14:15:18.879Z,100372.41
2022-08-26T14:17:48.952Z,100376.03
2022-08-26T14:20:21.441Z,100375.94
2022-08-26T14:23:12.558Z,100368.06
2022-08-26T14:25:36.342Z,100383.81
2022-08-26T14:28:03.776Z,100380.16
2022-08-26T14:30:32.354Z,100374.63
2022-08-26T14:32:59.851Z,100379.72
2022-08-26T14:35:29.793Z,100360.13
2022-08-26T14:37:57.892Z,100389.13
2022-08-26T14:40:29.705Z,100388.91
2022-08-26T14:42:58.896Z,100380.97
2022-08-26T14:45:28.563Z,100385.38
2022-08-26T14:47:57.159Z,100382.03
2022-08-26T14:50:26.927Z,100373.53
2022-08-26T14:53:12.650Z,100371.06
2022-08-26T14:55:42.229Z,100387.34
2022-08-26T14:58:10.271Z,100379.50
2022-08-26T15:00:38.539Z,100387.03
2022-08-26T15:03:06.474Z,100377.88
2022-08-26T15:05:34.448Z,100389.56
2022-08-26T15:08:04.791Z,100391.22
2022-08-26T15:10:34.399Z,100379.78
2022-08-26T15:13:02.321Z,100368.75
2022-08-26T15:15:29.984Z,100370.38
2022-08-26T15:17:57.579Z,100383.53
2022-08-26T15:20:25.077Z,100385.00
2022-08-26T15:22:52.386Z,100395.88
2022-08-26T15:25:20.957Z,100380.22
2022-08-26T15:27:48.844Z,100382.72
2022-08-26T15:30:16.902Z,100379.81
2022-08-26T15:32:44.423Z,100372.09
2022-08-26T15:35:11.936Z,100385.66
2022-08-26T15:37:39.792Z,100387.28
2022-08-26T15:40:09.553Z,100403.56
2022-08-26T15:42:38.195Z,100390.03
2022-08-26T15:45:05.700Z,100394.19
2022-08-26T15:47:35.477Z,100393.97
2022-08-26T15:50:25.508Z,100395.66
2022-08-26T15:52:52.916Z,100391.06
2022-08-26T15:55:23.637Z,100398.56
2022-08-26T15:57:50.979Z,100381.63
2022-08-26T16:00:18.652Z,100399.56
2022-08-26T16:02:46.060Z,100408.97
2022-08-26T16:05:13.632Z,100406.19
2022-08-26T16:07:41.025Z,100388.88
2022-08-26T16:10:08.848Z,100410.78
2022-08-26T16:12:37.460Z,100409.53
2022-08-26T16:15:05.489Z,100399.06
2022-08-26T16:17:32.905Z,100399.84
2022-08-26T16:20:00.894Z,100410.91
2022-08-26T16:22:28.582Z,100406.50
2022-08-26T16:24:59.220Z,100409.97
2022-08-26T16:27:27.056Z,100414.34
2022-08-26T16:29:54.787Z,100393.66
2022-08-26T16:32:22.487Z,100401.31
2022-08-26T16:34:56.235Z,100405.09
2022-08-26T16:37:24.302Z,100402.53
2022-08-26T16:39:51.838Z,100406.66
2022-08-26T16:42:19.703Z,100423.78
2022-08-26T16:44:47.614Z,100392.00
2022-08-26T16:47:16.689Z,100425.13
2022-08-26T16:49:46.786Z,100416.25
2022-08-26T16:52:18.040Z,100405.53
2022-08-26T16:54:45.926Z,100414.66
2022-08-26T16:57:13.843Z,100405.19
2022-08-26T16:59:41.746Z,100398.66
2022-08-26T17:02:12.069Z,100422.34
2022-08-26T17:04:40.128Z,100432.97
2022-08-26T17:07:07.869Z,100411.31
2022-08-26T17:09:35.322Z,100423.81
2022-08-26T17:12:03.125Z,100423.75
2022-08-26T17:14:30.395Z,100413.78
2022-08-26T17:16:57.902Z,100430.34
2022-08-26T17:19:25.636Z,100421.72
2022-08-26T17:21:53.341Z,100414.81
2022-08-26T17:24:21.061Z,100410.78
2022-08-26T17:26:53.457Z,100398.41
2022-08-26T17:29:23.953Z,100431.53
2022-08-26T17:31:51.462Z,100412.47
2022-08-26T17:34:19.202Z,100417.59
2022-08-26T17:36:46.412Z,100423.91
2022-08-26T17:39:13.617Z,100434.22
2022-08-26T17:41:41.311Z,100418.41
2022-08-26T17:44:08.676Z,100430.03
2022-08-26T17:46:38.872Z,100428.53
2022-08-26T17:49:06.716Z,100403.72
2022-08-26T17:51:34.278Z,100418.84
2022-08-26T17:54:01.931Z,100422.75
2022-08-26T17:56:29.837Z,100420.41
2022-08-26T17:59:02.510Z,100418.28
2022-08-26T18:01:31.892Z,100416.84
2022-08-26T18:04:00.619Z,100406.97
2022-08-26T18:06:32.591Z,100415.19
2022-08-26T18:09:01.060Z,100417.13
2022-08-26T18:11:29.551Z,100411.75
2022-08-26T18:13:56.912Z,100411.00
2022-08-26T18:16:24.639Z,100424.22
2022-08-26T18:18:53.610Z,100403.91
2022-08-26T18:21:24.238Z,100399.22
2022-08-26T18:23:52.209Z,100401.13
2022-08-26T18:26:27.459Z,100412.78
2022-08-26T18:28:57.999Z,100417.16
2022-08-26T18:31:26.565Z,100401.44
2022-08-26T18:33:54.337Z,100419.06
2022-08-26T18:36:30.895Z,100414.88
2022-08-26T18:38:59.822Z,100422.59
2022-08-26T18:41:30.888Z,100438.09
2022-08-26T18:44:18.828Z,100420.69
2022-08-26T18:46:47.485Z,100418.03
2022-08-26T18:49:53.443Z,100437.88
2022-08-26T18:52:41.374Z,100421.50
2022-08-26T18:55:08.647Z,100442.28
2022-08-26T18:57:37.392Z,100447.53
2022-08-26T19:00:09.436Z,100420.88
2022-08-26T19:02:39.788Z,100436.00
2022-08-26T19:05:10.460Z,100439.38
2022-08-26T19:07:39.710Z,100436.50
2022-08-26T19:10:07.799Z,100463.38
2022-08-26T19:12:37.588Z,100465.56
2022-08-26T19:15:07.849Z,100445.25
2022-08-26T19:17:35.362Z,100446.59
2022-08-26T19:20:08.547Z,100444.28
2022-08-26T19:22:54.346Z,100437.75
2022-08-26T19:25:21.846Z,100449.50
2022-08-26T19:27:49.214Z,100445.13
2022-08-26T19:30:24.660Z,100468.13
2022-08-26T19:33:21.283Z,100461.09
2022-08-26T19:36:06.324Z,100472.50
2022-08-26T19:38:38.259Z,100459.75
2022-08-26T19:41:23.009Z,100469.31
2022-08-26T19:43:55.982Z,100484.63
2022-08-26T19:46:28.521Z,100479.72
2022-08-26T19:49:08.505Z,100460.63
2022-08-26T19:51:53.194Z,100489.16
2022-08-26T20:16:26.338Z,100507.22
2022-08-26T20:19:05.377Z,100499.16
2022-08-26T20:21:49.024Z,100491.91
2022-08-26T20:25:15.166Z,100497.28
2022-08-26T20:27:45.356Z,100490.56
2022-08-26T20:30:40.693Z,100491.06
2022-08-26T20:33:46.347Z,100502.69
2022-08-26T20:36:19.803Z,100499.13
2022-08-26T20:39:06.590Z,100508.84
2022-08-26T20:46:18.777Z,100505.34
